sensor_id;sensor_type;location;lat;lon;timestamp;P1;durP1;ratioP1;P2;durP2;ratioP2
27402;SDS011;14862;49.494;8.530;2023-06-22T00:01:00;7.17;;;6.47;;
27402;SDS011;14862;49.494;8.530;2023-06-22T00:03:25;9.13;;;6.27;;
27402;SDS011;14862;49.494;8.530;2023-06-22T00:05:51;6.83;;;6.13;;
27402;SDS011;14862;49.494;8.530;2023-06-22T00:08:17;6.95;;;6.13;;
27402;SDS011;14862;49.494;8.530;2023-06-22T00:10:42;7.13;;;5.90;;
27402;SDS011;14862;49.494;8.530;2023-06-22T00:13:08;6.65;;;6.00;;
27402;SDS011;14862;49.494;8.530;2023-06-22T00:15:34;7.43;;;5.82;;
27402;SDS011;14862;49.494;8.530;2023-06-22T00:17:59;7.80;;;6.53;;
27402;SDS011;14862;49.494;8.530;2023-06-22T00:20:25;6.30;;;4.90;;
27402;SDS011;14862;49.494;8.530;2023-06-22T00:22:53;8.10;;;5.75;;
27402;SDS011;14862;49.494;8.530;2023-06-22T00:25:18;6.18;;;5.32;;
27402;SDS011;14862;49.494;8.530;2023-06-22T00:27:44;6.23;;;5.63;;
27402;SDS011;14862;49.494;8.530;2023-06-22T00:30:09;8.23;;;6.00;;
27402;SDS011;14862;49.494;8.530;2023-06-22T00:32:34;7.28;;;6.15;;
27402;SDS011;14862;49.494;8.530;2023-06-22T00:35:00;6.03;;;5.43;;
27402;SDS011;14862;49.494;8.530;2023-06-22T00:37:25;7.63;;;5.85;;
27402;SDS011;14862;49.494;8.530;2023-06-22T00:39:51;8.73;;;6.07;;
27402;SDS011;14862;49.494;8.530;2023-06-22T00:42:16;8.82;;;6.43;;
27402;SDS011;14862;49.494;8.530;2023-06-22T00:44:41;7.85;;;6.38;;
27402;SDS011;14862;49.494;8.530;2023-06-22T00:47:06;10.07;;;6.80;;
27402;SDS011;14862;49.494;8.530;2023-06-22T00:49:32;9.15;;;7.70;;
27402;SDS011;14862;49.494;8.530;2023-06-22T00:51:57;10.07;;;6.95;;
27402;SDS011;14862;49.494;8.530;2023-06-22T00:54:23;8.40;;;7.38;;
27402;SDS011;14862;49.494;8.530;2023-06-22T00:56:52;19.67;;;8.90;;
27402;SDS011;14862;49.494;8.530;2023-06-22T00:59:19;22.55;;;10.15;;
27402;SDS011;14862;49.494;8.530;2023-06-22T01:01:45;39.47;;;13.02;;
27402;SDS011;14862;49.494;8.530;2023-06-22T01:04:10;14.80;;;11.43;;
27402;SDS011;14862;49.494;8.530;2023-06-22T01:06:38;14.10;;;12.70;;
27402;SDS011;14862;49.494;8.530;2023-06-22T01:09:12;17.60;;;14.27;;
27402;SDS011;14862;49.494;8.530;2023-06-22T01:11:45;18.67;;;14.20;;
27402;SDS011;14862;49.494;8.530;2023-06-22T01:16:48;18.85;;;15.00;;
27402;SDS011;14862;49.494;8.530;2023-06-22T01:22:08;23.20;;;15.95;;
27402;SDS011;14862;49.494;8.530;2023-06-22T01:24:41;23.42;;;18.92;;
27402;SDS011;14862;49.494;8.530;2023-06-22T01:29:38;23.85;;;16.83;;
27402;SDS011;14862;49.494;8.530;2023-06-22T01:32:04;22.60;;;16.80;;
27402;SDS011;14862;49.494;8.530;2023-06-22T01:34:30;21.23;;;16.30;;
27402;SDS011;14862;49.494;8.530;2023-06-22T01:36:56;19.45;;;17.20;;
27402;SDS011;14862;49.494;8.530;2023-06-22T01:39:22;20.17;;;17.58;;
27402;SDS011;14862;49.494;8.530;2023-06-22T01:41:48;21.23;;;18.33;;
27402;SDS011;14862;49.494;8.530;2023-06-22T01:44:13;20.45;;;18.25;;
27402;SDS011;14862;49.494;8.530;2023-06-22T01:46:39;21.92;;;19.38;;
27402;SDS011;14862;49.494;8.530;2023-06-22T01:49:04;20.98;;;18.48;;
27402;SDS011;14862;49.494;8.530;2023-06-22T01:51:30;25.75;;;20.38;;
27402;SDS011;14862;49.494;8.530;2023-06-22T01:53:56;23.10;;;20.63;;
27402;SDS011;14862;49.494;8.530;2023-06-22T01:56:21;23.75;;;19.73;;
27402;SDS011;14862;49.494;8.530;2023-06-22T01:58:52;21.77;;;19.17;;
27402;SDS011;14862;49.494;8.530;2023-06-22T02:01:21;23.70;;;21.10;;
27402;SDS011;14862;49.494;8.530;2023-06-22T02:04:06;24.92;;;22.13;;
27402;SDS011;14862;49.494;8.530;2023-06-22T02:06:33;26.63;;;22.65;;
27402;SDS011;14862;49.494;8.530;2023-06-22T02:09:02;26.13;;;22.33;;
27402;SDS011;14862;49.494;8.530;2023-06-22T02:11:28;27.02;;;23.13;;
27402;SDS011;14862;49.494;8.530;2023-06-22T02:13:55;30.25;;;23.42;;
27402;SDS011;14862;49.494;8.530;2023-06-22T02:16:20;26.95;;;22.85;;
27402;SDS011;14862;49.494;8.530;2023-06-22T02:18:49;29.48;;;24.83;;
27402;SDS011;14862;49.494;8.530;2023-06-22T02:21:15;32.70;;;25.60;;
27402;SDS011;14862;49.494;8.530;2023-06-22T02:23:41;27.70;;;24.20;;
27402;SDS011;14862;49.494;8.530;2023-06-22T02:26:06;33.57;;;23.83;;
27402;SDS011;14862;49.494;8.530;2023-06-22T02:28:31;27.03;;;22.30;;
27402;SDS011;14862;49.494;8.530;2023-06-22T02:30:56;27.60;;;22.70;;
27402;SDS011;14862;49.494;8.530;2023-06-22T02:33:21;28.87;;;22.77;;
27402;SDS011;14862;49.494;8.530;2023-06-22T02:35:47;25.83;;;22.67;;
27402;SDS011;14862;49.494;8.530;2023-06-22T02:38:13;28.35;;;23.52;;
27402;SDS011;14862;49.494;8.530;2023-06-22T02:40:39;26.27;;;23.58;;
27402;SDS011;14862;49.494;8.530;2023-06-22T02:43:04;29.48;;;23.60;;
27402;SDS011;14862;49.494;8.530;2023-06-22T02:45:29;28.83;;;22.73;;
27402;SDS011;14862;49.494;8.530;2023-06-22T02:47:55;30.90;;;23.13;;
27402;SDS011;14862;49.494;8.530;2023-06-22T02:50:20;30.13;;;22.55;;
27402;SDS011;14862;49.494;8.530;2023-06-22T02:52:45;25.20;;;22.50;;
27402;SDS011;14862;49.494;8.530;2023-06-22T02:55:11;29.73;;;23.52;;
27402;SDS011;14862;49.494;8.530;2023-06-22T02:57:36;24.15;;;21.48;;
27402;SDS011;14862;49.494;8.530;2023-06-22T03:00:02;27.60;;;23.02;;
27402;SDS011;14862;49.494;8.530;2023-06-22T03:02:28;27.40;;;24.10;;
27402;SDS011;14862;49.494;8.530;2023-06-22T03:04:53;32.87;;;22.47;;
27402;SDS011;14862;49.494;8.530;2023-06-22T03:07:19;28.10;;;22.53;;
27402;SDS011;14862;49.494;8.530;2023-06-22T03:09:44;24.30;;;21.10;;
27402;SDS011;14862;49.494;8.530;2023-06-22T03:12:09;29.00;;;21.97;;
27402;SDS011;14862;49.494;8.530;2023-06-22T03:14:35;24.15;;;20.98;;
27402;SDS011;14862;49.494;8.530;2023-06-22T03:17:00;24.73;;;20.90;;
27402;SDS011;14862;49.494;8.530;2023-06-22T03:19:28;25.30;;;22.17;;
27402;SDS011;14862;49.494;8.530;2023-06-22T03:21:54;27.23;;;21.80;;
27402;SDS011;14862;49.494;8.530;2023-06-22T03:24:19;28.37;;;21.87;;
27402;SDS011;14862;49.494;8.530;2023-06-22T03:26:45;25.98;;;21.63;;
27402;SDS011;14862;49.494;8.530;2023-06-22T03:29:11;26.25;;;23.33;;
27402;SDS011;14862;49.494;8.530;2023-06-22T03:31:36;29.93;;;24.23;;
27402;SDS011;14862;49.494;8.530;2023-06-22T03:34:02;27.07;;;22.70;;
27402;SDS011;14862;49.494;8.530;2023-06-22T03:36:27;26.60;;;23.20;;
27402;SDS011;14862;49.494;8.530;2023-06-22T03:38:52;29.77;;;24.40;;
27402;SDS011;14862;49.494;8.530;2023-06-22T03:41:17;28.98;;;24.90;;
27402;SDS011;14862;49.494;8.530;2023-06-22T03:43:43;27.20;;;23.33;;
27402;SDS011;14862;49.494;8.530;2023-06-22T03:46:08;27.15;;;22.02;;
27402;SDS011;14862;49.494;8.530;2023-06-22T03:48:33;28.37;;;23.87;;
27402;SDS011;14862;49.494;8.530;2023-06-22T03:50:59;26.40;;;23.60;;
27402;SDS011;14862;49.494;8.530;2023-06-22T03:53:24;25.35;;;22.50;;
27402;SDS011;14862;49.494;8.530;2023-06-22T03:55:52;24.33;;;22.03;;
27402;SDS011;14862;49.494;8.530;2023-06-22T03:58:18;23.83;;;19.58;;
27402;SDS011;14862;49.494;8.530;2023-06-22T04:00:44;20.60;;;17.48;;
27402;SDS011;14862;49.494;8.530;2023-06-22T04:03:10;17.98;;;15.95;;
27402;SDS011;14862;49.494;8.530;2023-06-22T04:05:36;18.50;;;16.52;;
27402;SDS011;14862;49.494;8.530;2023-06-22T04:08:03;15.50;;;13.90;;
27402;SDS011;14862;49.494;8.530;2023-06-22T04:10:29;15.20;;;13.57;;
27402;SDS011;14862;49.494;8.530;2023-06-22T04:12:54;14.82;;;13.25;;
27402;SDS011;14862;49.494;8.530;2023-06-22T04:15:20;15.13;;;11.32;;
27402;SDS011;14862;49.494;8.530;2023-06-22T04:17:45;18.63;;;13.30;;
27402;SDS011;14862;49.494;8.530;2023-06-22T04:20:10;12.33;;;9.67;;
27402;SDS011;14862;49.494;8.530;2023-06-22T04:22:35;21.85;;;9.65;;
27402;SDS011;14862;49.494;8.530;2023-06-22T04:25:01;12.90;;;9.47;;
27402;SDS011;14862;49.494;8.530;2023-06-22T04:27:26;10.48;;;8.52;;
27402;SDS011;14862;49.494;8.530;2023-06-22T04:29:51;10.23;;;8.17;;
27402;SDS011;14862;49.494;8.530;2023-06-22T04:32:16;11.15;;;7.60;;
27402;SDS011;14862;49.494;8.530;2023-06-22T04:34:42;9.77;;;7.80;;
27402;SDS011;14862;49.494;8.530;2023-06-22T04:37:07;13.18;;;8.45;;
27402;SDS011;14862;49.494;8.530;2023-06-22T04:39:32;10.13;;;8.50;;
27402;SDS011;14862;49.494;8.530;2023-06-22T04:41:58;10.43;;;8.45;;
27402;SDS011;14862;49.494;8.530;2023-06-22T04:44:25;12.15;;;8.27;;
27402;SDS011;14862;49.494;8.530;2023-06-22T04:47:00;9.00;;;7.95;;
27402;SDS011;14862;49.494;8.530;2023-06-22T04:49:27;11.43;;;7.43;;
27402;SDS011;14862;49.494;8.530;2023-06-22T04:52:01;13.07;;;7.70;;
27402;SDS011;14862;49.494;8.530;2023-06-22T04:54:26;8.40;;;7.60;;
27402;SDS011;14862;49.494;8.530;2023-06-22T04:56:52;9.60;;;7.50;;
27402;SDS011;14862;49.494;8.530;2023-06-22T04:59:23;10.65;;;7.72;;
27402;SDS011;14862;49.494;8.530;2023-06-22T05:01:54;9.30;;;7.72;;
27402;SDS011;14862;49.494;8.530;2023-06-22T05:04:19;9.95;;;7.30;;
27402;SDS011;14862;49.494;8.530;2023-06-22T05:06:44;10.87;;;7.47;;
27402;SDS011;14862;49.494;8.530;2023-06-22T05:09:10;10.55;;;7.22;;
27402;SDS011;14862;49.494;8.530;2023-06-22T05:11:37;7.75;;;6.47;;
27402;SDS011;14862;49.494;8.530;2023-06-22T05:14:02;8.65;;;7.28;;
27402;SDS011;14862;49.494;8.530;2023-06-22T05:16:27;15.97;;;7.67;;
27402;SDS011;14862;49.494;8.530;2023-06-22T05:18:53;6.72;;;6.10;;
27402;SDS011;14862;49.494;8.530;2023-06-22T05:21:21;7.32;;;6.30;;
27402;SDS011;14862;49.494;8.530;2023-06-22T05:23:46;8.25;;;6.22;;
27402;SDS011;14862;49.494;8.530;2023-06-22T05:26:11;8.43;;;6.60;;
27402;SDS011;14862;49.494;8.530;2023-06-22T05:28:37;9.73;;;6.55;;
27402;SDS011;14862;49.494;8.530;2023-06-22T05:31:02;7.10;;;6.40;;
27402;SDS011;14862;49.494;8.530;2023-06-22T05:33:27;7.13;;;6.30;;
27402;SDS011;14862;49.494;8.530;2023-06-22T05:35:52;7.17;;;5.90;;
27402;SDS011;14862;49.494;8.530;2023-06-22T05:38:17;6.40;;;5.80;;
27402;SDS011;14862;49.494;8.530;2023-06-22T05:40:43;10.50;;;6.37;;
27402;SDS011;14862;49.494;8.530;2023-06-22T05:43:08;7.47;;;6.67;;
27402;SDS011;14862;49.494;8.530;2023-06-22T05:45:33;6.70;;;6.00;;
27402;SDS011;14862;49.494;8.530;2023-06-22T05:47:58;9.20;;;6.13;;
27402;SDS011;14862;49.494;8.530;2023-06-22T05:50:23;9.63;;;6.73;;
27402;SDS011;14862;49.494;8.530;2023-06-22T05:52:49;11.52;;;6.63;;
27402;SDS011;14862;49.494;8.530;2023-06-22T05:55:14;10.13;;;6.53;;
27402;SDS011;14862;49.494;8.530;2023-06-22T05:57:40;6.70;;;6.00;;
27402;SDS011;14862;49.494;8.530;2023-06-22T06:00:05;6.87;;;5.70;;
27402;SDS011;14862;49.494;8.530;2023-06-22T06:02:35;6.72;;;6.03;;
27402;SDS011;14862;49.494;8.530;2023-06-22T06:05:00;7.82;;;5.90;;
27402;SDS011;14862;49.494;8.530;2023-06-22T06:07:27;8.75;;;6.32;;
27402;SDS011;14862;49.494;8.530;2023-06-22T06:09:52;7.90;;;5.80;;
27402;SDS011;14862;49.494;8.530;2023-06-22T06:12:18;8.10;;;6.30;;
27402;SDS011;14862;49.494;8.530;2023-06-22T06:14:43;6.53;;;5.93;;
27402;SDS011;14862;49.494;8.530;2023-06-22T06:17:08;6.40;;;5.80;;
27402;SDS011;14862;49.494;8.530;2023-06-22T06:19:33;6.57;;;5.93;;
27402;SDS011;14862;49.494;8.530;2023-06-22T06:21:58;6.55;;;5.70;;
27402;SDS011;14862;49.494;8.530;2023-06-22T06:24:24;6.05;;;5.55;;
27402;SDS011;14862;49.494;8.530;2023-06-22T06:26:49;6.67;;;5.97;;
27402;SDS011;14862;49.494;8.530;2023-06-22T06:29:14;7.77;;;5.93;;
27402;SDS011;14862;49.494;8.530;2023-06-22T06:31:41;6.55;;;5.95;;
27402;SDS011;14862;49.494;8.530;2023-06-22T06:34:06;8.17;;;6.37;;
27402;SDS011;14862;49.494;8.530;2023-06-22T06:36:31;7.03;;;5.47;;
27402;SDS011;14862;49.494;8.530;2023-06-22T06:38:57;7.13;;;5.40;;
27402;SDS011;14862;49.494;8.530;2023-06-22T06:41:22;7.70;;;5.40;;
27402;SDS011;14862;49.494;8.530;2023-06-22T06:43:48;7.13;;;5.25;;
27402;SDS011;14862;49.494;8.530;2023-06-22T06:46:13;6.07;;;5.35;;
27402;SDS011;14862;49.494;8.530;2023-06-22T06:48:38;7.45;;;5.38;;
27402;SDS011;14862;49.494;8.530;2023-06-22T06:51:04;5.63;;;5.03;;
27402;SDS011;14862;49.494;8.530;2023-06-22T06:53:30;5.65;;;5.15;;
27402;SDS011;14862;49.494;8.530;2023-06-22T06:55:55;6.00;;;4.80;;
27402;SDS011;14862;49.494;8.530;2023-06-22T06:58:20;6.50;;;5.15;;
27402;SDS011;14862;49.494;8.530;2023-06-22T07:00:48;9.68;;;5.72;;
27402;SDS011;14862;49.494;8.530;2023-06-22T07:03:13;7.68;;;6.00;;
27402;SDS011;14862;49.494;8.530;2023-06-22T07:05:38;5.97;;;5.33;;
27402;SDS011;14862;49.494;8.530;2023-06-22T07:08:03;6.83;;;5.83;;
27402;SDS011;14862;49.494;8.530;2023-06-22T07:10:29;5.70;;;5.20;;
27402;SDS011;14862;49.494;8.530;2023-06-22T07:12:54;5.30;;;4.80;;
27402;SDS011;14862;49.494;8.530;2023-06-22T07:15:19;5.73;;;5.10;;
27402;SDS011;14862;49.494;8.530;2023-06-22T07:17:44;6.28;;;5.45;;
27402;SDS011;14862;49.494;8.530;2023-06-22T07:20:10;6.83;;;5.80;;
27402;SDS011;14862;49.494;8.530;2023-06-22T07:22:37;10.02;;;6.43;;
27402;SDS011;14862;49.494;8.530;2023-06-22T07:25:02;6.00;;;5.40;;
27402;SDS011;14862;49.494;8.530;2023-06-22T07:27:33;6.50;;;5.65;;
27402;SDS011;14862;49.494;8.530;2023-06-22T07:30:01;5.68;;;5.18;;
27402;SDS011;14862;49.494;8.530;2023-06-22T07:32:26;5.32;;;4.80;;
27402;SDS011;14862;49.494;8.530;2023-06-22T07:34:53;8.60;;;5.30;;
27402;SDS011;14862;49.494;8.530;2023-06-22T07:37:18;6.25;;;5.45;;
27402;SDS011;14862;49.494;8.530;2023-06-22T07:39:43;5.50;;;4.70;;
27402;SDS011;14862;49.494;8.530;2023-06-22T07:42:09;5.38;;;4.80;;
27402;SDS011;14862;49.494;8.530;2023-06-22T07:44:34;6.55;;;4.40;;
27402;SDS011;14862;49.494;8.530;2023-06-22T07:46:59;6.13;;;4.60;;
27402;SDS011;14862;49.494;8.530;2023-06-22T07:49:24;6.13;;;4.50;;
27402;SDS011;14862;49.494;8.530;2023-06-22T07:51:50;5.03;;;4.53;;
27402;SDS011;14862;49.494;8.530;2023-06-22T07:54:15;5.60;;;4.30;;
27402;SDS011;14862;49.494;8.530;2023-06-22T07:56:41;4.88;;;4.38;;
27402;SDS011;14862;49.494;8.530;2023-06-22T07:59:06;6.07;;;4.43;;
27402;SDS011;14862;49.494;8.530;2023-06-22T08:01:32;6.07;;;4.37;;
27402;SDS011;14862;49.494;8.530;2023-06-22T08:03:57;5.00;;;4.50;;
27402;SDS011;14862;49.494;8.530;2023-06-22T08:06:22;6.13;;;4.50;;
27402;SDS011;14862;49.494;8.530;2023-06-22T08:08:47;7.10;;;5.07;;
27402;SDS011;14862;49.494;8.530;2023-06-22T08:11:13;5.50;;;4.88;;
27402;SDS011;14862;49.494;8.530;2023-06-22T08:13:39;4.60;;;4.20;;
27402;SDS011;14862;49.494;8.530;2023-06-22T08:16:04;4.65;;;4.05;;
27402;SDS011;14862;49.494;8.530;2023-06-22T08:18:29;6.50;;;4.53;;
27402;SDS011;14862;49.494;8.530;2023-06-22T08:20:55;6.70;;;4.80;;
27402;SDS011;14862;49.494;8.530;2023-06-22T08:23:20;6.90;;;4.63;;
27402;SDS011;14862;49.494;8.530;2023-06-22T08:25:45;6.07;;;4.47;;
27402;SDS011;14862;49.494;8.530;2023-06-22T08:28:10;5.72;;;4.85;;
27402;SDS011;14862;49.494;8.530;2023-06-22T08:30:36;4.57;;;4.10;;
27402;SDS011;14862;49.494;8.530;2023-06-22T08:33:01;6.67;;;5.00;;
27402;SDS011;14862;49.494;8.530;2023-06-22T08:35:26;5.57;;;4.82;;
27402;SDS011;14862;49.494;8.530;2023-06-22T08:37:51;5.47;;;4.57;;
27402;SDS011;14862;49.494;8.530;2023-06-22T08:40:19;5.53;;;4.50;;
27402;SDS011;14862;49.494;8.530;2023-06-22T08:42:45;5.72;;;5.07;;
27402;SDS011;14862;49.494;8.530;2023-06-22T08:45:10;6.25;;;4.75;;
27402;SDS011;14862;49.494;8.530;2023-06-22T08:47:36;9.45;;;5.20;;
27402;SDS011;14862;49.494;8.530;2023-06-22T08:50:01;5.10;;;4.60;;
27402;SDS011;14862;49.494;8.530;2023-06-22T08:52:29;6.57;;;4.80;;
27402;SDS011;14862;49.494;8.530;2023-06-22T08:54:54;6.60;;;4.63;;
27402;SDS011;14862;49.494;8.530;2023-06-22T08:57:20;4.70;;;4.10;;
27402;SDS011;14862;49.494;8.530;2023-06-22T08:59:45;4.97;;;4.55;;
27402;SDS011;14862;49.494;8.530;2023-06-22T09:02:11;8.73;;;4.57;;
27402;SDS011;14862;49.494;8.530;2023-06-22T09:04:36;5.57;;;4.17;;
27402;SDS011;14862;49.494;8.530;2023-06-22T09:07:01;5.70;;;5.00;;
27402;SDS011;14862;49.494;8.530;2023-06-22T09:09:27;5.25;;;4.55;;
27402;SDS011;14862;49.494;8.530;2023-06-22T09:11:52;9.60;;;5.47;;
27402;SDS011;14862;49.494;8.530;2023-06-22T09:14:18;7.97;;;4.95;;
27402;SDS011;14862;49.494;8.530;2023-06-22T09:16:43;5.78;;;4.75;;
27402;SDS011;14862;49.494;8.530;2023-06-22T09:19:08;5.60;;;4.35;;
27402;SDS011;14862;49.494;8.530;2023-06-22T09:21:34;5.93;;;4.75;;
27402;SDS011;14862;49.494;8.530;2023-06-22T09:23:59;7.80;;;5.32;;
27402;SDS011;14862;49.494;8.530;2023-06-22T09:26:24;6.35;;;5.75;;
27402;SDS011;14862;49.494;8.530;2023-06-22T09:28:50;7.32;;;4.35;;
27402;SDS011;14862;49.494;8.530;2023-06-22T09:31:15;7.35;;;4.50;;
27402;SDS011;14862;49.494;8.530;2023-06-22T09:33:42;9.00;;;4.50;;
27402;SDS011;14862;49.494;8.530;2023-06-22T09:36:07;7.97;;;4.88;;
27402;SDS011;14862;49.494;8.530;2023-06-22T09:38:36;7.63;;;4.80;;
27402;SDS011;14862;49.494;8.530;2023-06-22T09:41:01;8.13;;;4.65;;
27402;SDS011;14862;49.494;8.530;2023-06-22T09:43:27;5.28;;;4.63;;
27402;SDS011;14862;49.494;8.530;2023-06-22T09:45:52;5.25;;;4.50;;
27402;SDS011;14862;49.494;8.530;2023-06-22T09:48:17;7.07;;;4.87;;
27402;SDS011;14862;49.494;8.530;2023-06-22T09:50:43;8.43;;;4.55;;
27402;SDS011;14862;49.494;8.530;2023-06-22T09:53:09;7.57;;;4.43;;
27402;SDS011;14862;49.494;8.530;2023-06-22T09:55:34;8.77;;;5.47;;
27402;SDS011;14862;49.494;8.530;2023-06-22T09:57:59;7.05;;;4.82;;
27402;SDS011;14862;49.494;8.530;2023-06-22T10:00:24;9.27;;;5.33;;
27402;SDS011;14862;49.494;8.530;2023-06-22T10:02:51;8.35;;;5.13;;
27402;SDS011;14862;49.494;8.530;2023-06-22T10:05:17;9.77;;;5.55;;
27402;SDS011;14862;49.494;8.530;2023-06-22T10:07:42;9.57;;;5.28;;
27402;SDS011;14862;49.494;8.530;2023-06-22T10:10:08;7.93;;;5.78;;
27402;SDS011;14862;49.494;8.530;2023-06-22T10:12:34;8.73;;;5.82;;
27402;SDS011;14862;49.494;8.530;2023-06-22T10:14:59;6.80;;;5.07;;
27402;SDS011;14862;49.494;8.530;2023-06-22T10:17:24;7.70;;;5.73;;
27402;SDS011;14862;49.494;8.530;2023-06-22T10:19:49;10.17;;;5.60;;
27402;SDS011;14862;49.494;8.530;2023-06-22T10:22:14;9.60;;;4.93;;
27402;SDS011;14862;49.494;8.530;2023-06-22T10:24:40;9.83;;;6.20;;
27402;SDS011;14862;49.494;8.530;2023-06-22T10:27:09;12.57;;;6.50;;
27402;SDS011;14862;49.494;8.530;2023-06-22T10:29:35;73.80;;;13.82;;
27402;SDS011;14862;49.494;8.530;2023-06-22T10:32:00;16.07;;;6.47;;
27402;SDS011;14862;49.494;8.530;2023-06-22T10:34:25;9.80;;;5.33;;
27402;SDS011;14862;49.494;8.530;2023-06-22T10:36:50;8.47;;;6.07;;
27402;SDS011;14862;49.494;8.530;2023-06-22T10:39:15;8.67;;;5.33;;
27402;SDS011;14862;49.494;8.530;2023-06-22T10:41:41;8.40;;;5.97;;
27402;SDS011;14862;49.494;8.530;2023-06-22T10:44:06;9.90;;;5.50;;
27402;SDS011;14862;49.494;8.530;2023-06-22T10:46:31;16.50;;;5.87;;
27402;SDS011;14862;49.494;8.530;2023-06-22T10:48:56;14.13;;;6.77;;
27402;SDS011;14862;49.494;8.530;2023-06-22T10:51:23;10.38;;;6.40;;
27402;SDS011;14862;49.494;8.530;2023-06-22T10:53:48;11.27;;;6.13;;
27402;SDS011;14862;49.494;8.530;2023-06-22T10:56:14;13.37;;;6.17;;
27402;SDS011;14862;49.494;8.530;2023-06-22T10:58:39;11.57;;;6.20;;
27402;SDS011;14862;49.494;8.530;2023-06-22T11:01:04;12.87;;;6.47;;
27402;SDS011;14862;49.494;8.530;2023-06-22T11:03:29;9.40;;;6.93;;
27402;SDS011;14862;49.494;8.530;2023-06-22T11:05:54;12.90;;;6.37;;
27402;SDS011;14862;49.494;8.530;2023-06-22T11:08:20;8.37;;;6.23;;
27402;SDS011;14862;49.494;8.530;2023-06-22T11:10:45;10.10;;;5.97;;
27402;SDS011;14862;49.494;8.530;2023-06-22T11:13:10;10.35;;;6.45;;
27402;SDS011;14862;49.494;8.530;2023-06-22T11:15:36;10.98;;;6.10;;
27402;SDS011;14862;49.494;8.530;2023-06-22T11:18:01;9.00;;;5.40;;
27402;SDS011;14862;49.494;8.530;2023-06-22T11:20:26;16.47;;;6.23;;
27402;SDS011;14862;49.494;8.530;2023-06-22T11:22:51;8.13;;;5.70;;
27402;SDS011;14862;49.494;8.530;2023-06-22T11:25:16;14.73;;;5.83;;
27402;SDS011;14862;49.494;8.530;2023-06-22T11:27:42;7.45;;;5.95;;
27402;SDS011;14862;49.494;8.530;2023-06-22T11:30:07;16.03;;;6.23;;
27402;SDS011;14862;49.494;8.530;2023-06-22T11:32:33;8.85;;;5.30;;
27402;SDS011;14862;49.494;8.530;2023-06-22T11:34:58;8.95;;;5.82;;
27402;SDS011;14862;49.494;8.530;2023-06-22T11:37:23;8.50;;;5.37;;
27402;SDS011;14862;49.494;8.530;2023-06-22T11:39:49;14.07;;;7.17;;
27402;SDS011;14862;49.494;8.530;2023-06-22T11:42:14;7.63;;;6.15;;
27402;SDS011;14862;49.494;8.530;2023-06-22T11:44:39;11.20;;;6.27;;
27402;SDS011;14862;49.494;8.530;2023-06-22T11:47:05;13.23;;;6.78;;
27402;SDS011;14862;49.494;8.530;2023-06-22T11:49:30;11.75;;;5.70;;
27402;SDS011;14862;49.494;8.530;2023-06-22T11:51:55;9.30;;;5.80;;
27402;SDS011;14862;49.494;8.530;2023-06-22T11:54:21;10.97;;;6.57;;
27402;SDS011;14862;49.494;8.530;2023-06-22T11:56:46;13.18;;;6.50;;
27402;SDS011;14862;49.494;8.530;2023-06-22T11:59:11;11.18;;;6.40;;
27402;SDS011;14862;49.494;8.530;2023-06-22T12:01:37;14.30;;;5.93;;
27402;SDS011;14862;49.494;8.530;2023-06-22T12:04:02;7.80;;;5.68;;
27402;SDS011;14862;49.494;8.530;2023-06-22T12:06:30;11.13;;;5.95;;
27402;SDS011;14862;49.494;8.530;2023-06-22T12:08:55;9.23;;;5.30;;
27402;SDS011;14862;49.494;8.530;2023-06-22T12:11:21;9.27;;;5.43;;
27402;SDS011;14862;49.494;8.530;2023-06-22T12:13:46;13.33;;;5.97;;
27402;SDS011;14862;49.494;8.530;2023-06-22T12:16:11;13.60;;;6.20;;
27402;SDS011;14862;49.494;8.530;2023-06-22T12:18:37;10.77;;;5.68;;
27402;SDS011;14862;49.494;8.530;2023-06-22T12:21:02;9.43;;;5.50;;
27402;SDS011;14862;49.494;8.530;2023-06-22T12:23:27;9.37;;;5.70;;
27402;SDS011;14862;49.494;8.530;2023-06-22T12:25:53;11.07;;;5.35;;
27402;SDS011;14862;49.494;8.530;2023-06-22T12:28:18;10.48;;;5.95;;
27402;SDS011;14862;49.494;8.530;2023-06-22T12:30:43;9.23;;;5.97;;
27402;SDS011;14862;49.494;8.530;2023-06-22T12:33:08;7.85;;;5.47;;
27402;SDS011;14862;49.494;8.530;2023-06-22T12:35:34;9.90;;;6.07;;
27402;SDS011;14862;49.494;8.530;2023-06-22T12:37:59;7.78;;;5.10;;
27402;SDS011;14862;49.494;8.530;2023-06-22T12:40:24;9.33;;;5.53;;
27402;SDS011;14862;49.494;8.530;2023-06-22T12:42:50;12.48;;;5.25;;
27402;SDS011;14862;49.494;8.530;2023-06-22T12:45:15;12.33;;;6.10;;
27402;SDS011;14862;49.494;8.530;2023-06-22T12:47:40;13.90;;;5.85;;
27402;SDS011;14862;49.494;8.530;2023-06-22T12:50:06;8.50;;;5.77;;
27402;SDS011;14862;49.494;8.530;2023-06-22T12:52:31;13.45;;;5.88;;
27402;SDS011;14862;49.494;8.530;2023-06-22T12:54:57;8.13;;;5.47;;
27402;SDS011;14862;49.494;8.530;2023-06-22T12:57:22;12.63;;;6.00;;
27402;SDS011;14862;49.494;8.530;2023-06-22T12:59:48;8.15;;;6.07;;
27402;SDS011;14862;49.494;8.530;2023-06-22T13:02:13;12.20;;;5.97;;
27402;SDS011;14862;49.494;8.530;2023-06-22T13:04:38;7.17;;;4.87;;
27402;SDS011;14862;49.494;8.530;2023-06-22T13:07:04;11.50;;;5.70;;
27402;SDS011;14862;49.494;8.530;2023-06-22T13:09:29;11.55;;;5.95;;
27402;SDS011;14862;49.494;8.530;2023-06-22T13:11:55;11.25;;;5.47;;
27402;SDS011;14862;49.494;8.530;2023-06-22T13:14:20;14.37;;;5.93;;
27402;SDS011;14862;49.494;8.530;2023-06-22T13:16:45;8.67;;;5.63;;
27402;SDS011;14862;49.494;8.530;2023-06-22T13:19:10;9.93;;;6.07;;
27402;SDS011;14862;49.494;8.530;2023-06-22T13:21:36;12.02;;;5.60;;
27402;SDS011;14862;49.494;8.530;2023-06-22T13:24:01;18.40;;;7.20;;
27402;SDS011;14862;49.494;8.530;2023-06-22T13:26:26;10.63;;;5.73;;
27402;SDS011;14862;49.494;8.530;2023-06-22T13:28:53;9.90;;;5.75;;
27402;SDS011;14862;49.494;8.530;2023-06-22T13:31:18;10.48;;;6.30;;
27402;SDS011;14862;49.494;8.530;2023-06-22T13:33:44;8.50;;;5.67;;
27402;SDS011;14862;49.494;8.530;2023-06-22T13:36:11;12.25;;;5.82;;
27402;SDS011;14862;49.494;8.530;2023-06-22T13:38:36;13.10;;;6.40;;
27402;SDS011;14862;49.494;8.530;2023-06-22T13:41:03;12.52;;;5.10;;
27402;SDS011;14862;49.494;8.530;2023-06-22T13:43:29;11.90;;;5.43;;
27402;SDS011;14862;49.494;8.530;2023-06-22T13:45:54;9.33;;;5.60;;
27402;SDS011;14862;49.494;8.530;2023-06-22T13:48:19;14.37;;;5.10;;
27402;SDS011;14862;49.494;8.530;2023-06-22T13:50:45;12.88;;;5.50;;
27402;SDS011;14862;49.494;8.530;2023-06-22T13:53:10;14.40;;;6.68;;
27402;SDS011;14862;49.494;8.530;2023-06-22T13:55:35;12.23;;;5.73;;
27402;SDS011;14862;49.494;8.530;2023-06-22T13:58:00;12.67;;;4.93;;
27402;SDS011;14862;49.494;8.530;2023-06-22T14:00:26;11.93;;;5.63;;
27402;SDS011;14862;49.494;8.530;2023-06-22T14:02:52;14.90;;;6.15;;
27402;SDS011;14862;49.494;8.530;2023-06-22T14:05:18;12.90;;;6.68;;
27402;SDS011;14862;49.494;8.530;2023-06-22T14:07:43;12.03;;;5.60;;
27402;SDS011;14862;49.494;8.530;2023-06-22T14:10:08;15.75;;;6.28;;
27402;SDS011;14862;49.494;8.530;2023-06-22T14:12:33;12.90;;;6.22;;
27402;SDS011;14862;49.494;8.530;2023-06-22T14:14:59;11.90;;;6.07;;
27402;SDS011;14862;49.494;8.530;2023-06-22T14:17:24;12.85;;;6.90;;
27402;SDS011;14862;49.494;8.530;2023-06-22T14:19:51;10.25;;;5.75;;
27402;SDS011;14862;49.494;8.530;2023-06-22T14:22:20;16.30;;;6.35;;
27402;SDS011;14862;49.494;8.530;2023-06-22T14:24:45;13.23;;;6.40;;
27402;SDS011;14862;49.494;8.530;2023-06-22T14:27:11;13.55;;;6.55;;
27402;SDS011;14862;49.494;8.530;2023-06-22T14:29:36;12.65;;;6.30;;
27402;SDS011;14862;49.494;8.530;2023-06-22T14:32:01;12.65;;;6.90;;
27402;SDS011;14862;49.494;8.530;2023-06-22T14:34:26;15.55;;;6.57;;
27402;SDS011;14862;49.494;8.530;2023-06-22T14:36:52;16.93;;;7.07;;